Cerro Moreno Airport
SCFA : now visible

Airfield :











YOU CAN JOIN US ON...

 
LOGIN :

Register | Disclaimer

   EN    FR    IT 

 









Legend :    VFR   Marginal VFR   IFR   Intensive IFR   Very Intensive IFR
Visi :
Ceiling :
>= 8 km
>= 3000ft
5 to 8 km
1000 to 3000 ft
1500m to 5 km
500 to 1000 ft
800 to 1500m
200 to 500 ft
< 800m
< 200 ft
Symbols :   Thunderstorms  Fog  Heavy snow  Heavy precipitations  Wind > 20 kt






- Airport Elevation : 455 ft
- IATA code : ANF


SCFA - Cerro Moreno

CURRENT METAR :
  • 270100Z 17006KT 9999 BKN039 20/16 Q1016 NOSIG

EXPIRED METARs :
  • 270000Z 19006KT 9999 FEW010 SCT040 20/16 Q1015 NOSIG
  • 262300Z 21007KT 9999 FEW015 21/16 Q1014 NOSIG

TAF TAF SCFA
Valid from the 27 at 00:00 until the 28 at 00:00 UTC


262231Z 2700/2724 18004KT 9999 FEW025 TN18/2708Z TX23/2718Z
BECMG 2705/2707 BKN015
BECMG 2709/2711 FEW020
BECMG 2716/2718 20014KT



MET'MAP, your aeronautical weather chart ! - Copyright ORBIFLY December 2007 - Disclaimer

ORBIFLY MET'MAP TEAM :

Programming & Development : Alexandra Zaïnal
Concept & original design : Baudouin d'Aumeries
Assistance for programming : Marc-Olivier Méhu
Technical & hardware support : Manuel Goepfert

Contact : metmap@orbifly.com




SOURCES & CREDITS :

   NOAA       Earth
Advisory